WAJJ

Jayapura/Sentani Airport

Airport
ICAO code
WAJJ
IATA Code
DJJ
Summary
ICAO Region
APAC
ICAO Territory
Location

Sentani, Papua

Serving
Jayapura
Elevation
289 ft
Coordinates
2° 34' 36" S , 140° 30' 58" E
Metar
Observation
WAJJ 170900Z 31005KT 9999 FEW015 29/23 Q1008 NOSIG
Station
Jayapura / Sentani
Date/Time
2022-08-17 09:00:00
Wind direction
310°
Wind speed
05 kts
Lowest cloud amount
few clouds
Temperature
29°C
Dew point
23°C
Humidity
70%
QNH
1008 hPa
Weather condition
n/a

Description

Jalan Raya Airport Sentani is an airport serving Jayapura, the capital of Papua province, Indonesia, on the island of New Guinea.

Climatology

Airport map

Aerial View

SKYbrary Partners:

Safety knowledge contributed by: